Time;durP1;ratioP1;P1;durP2;ratioP2;P2;SDS_P1;SDS_P2;PMS_P1;PMS_P2;Temp;Humidity;BMP_temperature;BMP_pressure;BME280_temperature;BME280_humidity;BME280_pressure;Samples;Min_cycle;Max_cycle;Signal;HPM_P1;HPM_P2
2021/04/11 00:01:42;;;;;;;13.60;10.40;;;;;;;;;;5019585;28;20467;-73
2021/04/11 00:04:13;;;;;;;16.33;11.23;;;;;;;;;;5019622;28;20466;-72
2021/04/11 00:06:46;;;;;;;18.63;11.20;;;;;;;;;;5019700;28;20498;-73
2021/04/11 00:09:15;;;;;;;23.23;12.67;;;;;;;;;;5019301;28;20452;-73
2021/04/11 00:11:42;;;;;;;16.70;12.10;;;;;;;;;;5019484;28;20796;-73
2021/04/11 00:14:09;;;;;;;18.23;10.93;;;;;;;;;;5019276;28;20522;-73
2021/04/11 00:16:42;;;;;;;18.57;12.43;;;;;;;;;;5018153;28;20451;-73
2021/04/11 00:19:11;;;;;;;23.40;12.37;;;;;;;;;;5019179;28;20460;-73
2021/04/11 00:21:56;;;;;;;18.77;12.67;;;;;;;;;;5019555;28;20613;-73
2021/04/11 00:24:25;;;;;;;21.60;11.20;;;;;;;;;;5020912;28;20699;-72
2021/04/11 00:26:53;;;;;;;20.50;11.80;;;;;;;;;;5027359;28;20474;-73
2021/04/11 00:29:20;;;;;;;18.97;10.13;;;;;;;;;;5056899;28;20458;-73
2021/04/11 00:31:49;;;;;;;17.80;10.83;;;;;;;;;;5042210;28;20877;-73
2021/04/11 00:34:16;;;;;;;16.47;11.80;;;;;;;;;;5018411;28;20578;-73
2021/04/11 00:36:43;;;;;;;13.90;9.93;;;;;;;;;;5018396;28;20471;-73
2021/04/11 00:39:13;;;;;;;15.87;10.13;;;;;;;;;;5029453;28;20451;-73
2021/04/11 00:41:45;;;;;;;18.30;9.70;;;;;;;;;;5028309;28;20598;-73
2021/04/11 00:44:14;;;;;;;15.80;9.77;;;;;;;;;;5055781;28;20453;-72
2021/04/11 00:46:44;;;;;;;14.63;9.90;;;;;;;;;;5022139;28;20460;-73
2021/04/11 00:49:14;;;;;;;12.90;9.03;;;;;;;;;;5024397;28;20563;-73
2021/04/11 00:51:41;;;;;;;14.37;10.13;;;;;;;;;;5036488;28;20846;-72
2021/04/11 00:54:11;;;;;;;14.80;9.57;;;;;;;;;;5037663;28;20530;-71
2021/04/11 00:56:47;;;;;;;16.83;9.90;;;;;;;;;;5018801;28;20459;-71
2021/04/11 00:59:15;;;;;;;15.07;10.70;;;;;;;;;;5030291;28;20450;-73
2021/04/11 01:01:42;;;;;;;19.70;12.03;;;;;;;;;;5038332;28;20545;-73
2021/04/11 01:04:42;;;;;;;18.27;10.80;;;;;;;;;;5029280;28;20483;-73
2021/04/11 01:07:17;;;;;;;16.33;11.77;;;;;;;;;;5022296;28;20487;-73
2021/04/11 01:09:46;;;;;;;20.90;10.93;;;;;;;;;;5037946;28;20446;-72
2021/04/11 01:12:16;;;;;;;14.83;9.93;;;;;;;;;;5037781;28;20514;-73
2021/04/11 01:14:44;;;;;;;16.30;11.20;;;;;;;;;;5037399;28;20539;-73
2021/04/11 01:17:12;;;;;;;16.30;9.90;;;;;;;;;;5037995;28;20525;-73
2021/04/11 01:19:41;;;;;;;15.60;10.37;;;;;;;;;;5036859;28;20509;-73
2021/04/11 01:22:14;;;;;;;22.70;12.50;;;;;;;;;;5037719;28;20459;-73
2021/04/11 01:24:44;;;;;;;14.60;8.67;;;;;;;;;;5028686;28;20452;-73
2021/04/11 01:27:13;;;;;;;22.17;11.97;;;;;;;;;;5017934;28;20554;-72
2021/04/11 01:29:43;;;;;;;19.10;13.43;;;;;;;;;;5017337;28;20460;-72
2021/04/11 01:32:15;;;;;;;20.00;13.80;;;;;;;;;;5017817;28;20487;-72
2021/04/11 01:34:43;;;;;;;22.73;13.60;;;;;;;;;;5023625;28;20452;-72
2021/04/11 01:37:12;;;;;;;21.20;13.40;;;;;;;;;;5023957;28;20474;-72
2021/04/11 01:39:41;;;;;;;22.07;14.90;;;;;;;;;;5028300;28;20444;-72
2021/04/11 01:42:09;;;;;;;23.70;14.03;;;;;;;;;;5017754;28;20466;-72
2021/04/11 01:44:38;;;;;;;19.13;14.57;;;;;;;;;;5017629;28;20463;-72
2021/04/11 01:47:05;;;;;;;17.23;12.00;;;;;;;;;;5017975;28;20463;-72
2021/04/11 01:49:33;;;;;;;20.10;14.20;;;;;;;;;;5017742;28;20462;-72
2021/04/11 01:52:03;;;;;;;22.33;16.20;;;;;;;;;;5017163;28;20554;-72
2021/04/11 01:54:33;;;;;;;24.93;14.97;;;;;;;;;;5017702;28;20731;-72
2021/04/11 01:57:05;;;;;;;26.30;17.03;;;;;;;;;;5017449;28;20742;-72
2021/04/11 01:59:33;;;;;;;17.97;12.67;;;;;;;;;;5017400;28;20465;-72
2021/04/11 02:02:01;;;;;;;24.67;16.17;;;;;;;;;;5017186;28;20462;-72
2021/04/11 02:04:28;;;;;;;27.90;17.97;;;;;;;;;;5017323;28;20915;-72
2021/04/11 02:06:58;;;;;;;32.03;19.07;;;;;;;;;;5017426;28;20475;-72
2021/04/11 02:09:27;;;;;;;28.13;17.90;;;;;;;;;;5017250;28;20455;-72
2021/04/11 02:11:55;;;;;;;28.70;19.13;;;;;;;;;;5017234;28;20491;-72
2021/04/11 02:14:23;;;;;;;30.70;19.10;;;;;;;;;;5017468;28;20451;-72
2021/04/11 02:16:52;;;;;;;30.70;19.40;;;;;;;;;;5017334;28;20463;-72
2021/04/11 02:19:20;;;;;;;27.63;18.57;;;;;;;;;;5017443;28;20535;-72
2021/04/11 02:22:18;;;;;;;27.03;18.20;;;;;;;;;;5016882;28;20459;-72
2021/04/11 02:24:45;;;;;;;28.17;18.80;;;;;;;;;;5016900;28;20887;-72
2021/04/11 02:27:14;;;;;;;30.23;19.07;;;;;;;;;;5016992;28;20500;-72
2021/04/11 02:29:42;;;;;;;28.20;21.07;;;;;;;;;;5017029;28;20484;-72
2021/04/11 02:32:10;;;;;;;36.57;22.87;;;;;;;;;;5016779;28;20495;-71
2021/04/11 02:34:37;;;;;;;32.27;19.37;;;;;;;;;;5016805;28;20502;-72
2021/04/11 02:37:07;;;;;;;29.07;19.73;;;;;;;;;;5016706;28;20510;-72
2021/04/11 02:39:36;;;;;;;27.70;18.90;;;;;;;;;;5018166;28;20475;-72
2021/04/11 02:42:05;;;;;;;30.87;21.67;;;;;;;;;;5021208;28;20863;-72
2021/04/11 02:44:35;;;;;;;33.67;21.83;;;;;;;;;;5020959;28;20463;-72
2021/04/11 02:47:04;;;;;;;31.67;21.47;;;;;;;;;;5021017;28;20466;-72
2021/04/11 02:49:33;;;;;;;33.23;20.27;;;;;;;;;;5020930;28;20462;-72
2021/04/11 02:52:03;;;;;;;31.03;20.83;;;;;;;;;;5020510;28;20498;-72
2021/04/11 02:54:31;;;;;;;26.10;17.43;;;;;;;;;;5020666;28;20462;-72
2021/04/11 02:56:59;;;;;;;36.57;21.13;;;;;;;;;;5020419;28;20460;-72
2021/04/11 02:59:27;;;;;;;32.40;22.20;;;;;;;;;;5020633;28;20730;-72
2021/04/11 03:01:55;;;;;;;30.43;20.30;;;;;;;;;;5020309;28;20459;-73
2021/04/11 03:04:24;;;;;;;30.50;20.90;;;;;;;;;;5020375;28;20478;-72
2021/04/11 03:06:56;;;;;;;36.93;21.63;;;;;;;;;;5020515;28;20455;-72
2021/04/11 03:09:27;;;;;;;30.70;20.17;;;;;;;;;;5020390;28;20497;-72
2021/04/11 03:11:56;;;;;;;34.23;23.60;;;;;;;;;;5020324;28;20998;-72
2021/04/11 03:14:27;;;;;;;31.93;20.23;;;;;;;;;;5019975;28;20871;-72
2021/04/11 03:16:55;;;;;;;32.50;21.70;;;;;;;;;;5020594;28;20452;-72
2021/04/11 03:19:25;;;;;;;40.90;25.30;;;;;;;;;;5020212;28;20459;-72
2021/04/11 03:21:52;;;;;;;34.77;23.30;;;;;;;;;;5020025;28;20545;-72
2021/04/11 03:24:21;;;;;;;38.07;24.30;;;;;;;;;;5020081;28;20464;-72
2021/04/11 03:26:50;;;;;;;34.60;22.70;;;;;;;;;;5020075;28;20539;-73
2021/04/11 03:29:19;;;;;;;38.33;24.30;;;;;;;;;;5019835;28;20525;-73
2021/04/11 03:31:48;;;;;;;39.83;24.13;;;;;;;;;;5019604;28;20605;-73
2021/04/11 03:34:16;;;;;;;32.80;22.07;;;;;;;;;;5020114;28;20474;-73
2021/04/11 03:36:45;;;;;;;29.77;20.30;;;;;;;;;;5019692;28;20452;-73
2021/04/11 03:39:14;;;;;;;34.13;23.90;;;;;;;;;;5019963;28;20723;-73
2021/04/11 03:41:43;;;;;;;34.70;23.20;;;;;;;;;;5020124;28;20747;-73
2021/04/11 03:44:12;;;;;;;27.67;19.57;;;;;;;;;;5019909;28;20574;-73
2021/04/11 03:46:41;;;;;;;37.37;22.70;;;;;;;;;;5020256;28;20874;-73
2021/04/11 03:49:12;;;;;;;37.37;24.53;;;;;;;;;;5019867;28;20591;-73
2021/04/11 03:51:42;;;;;;;33.77;20.47;;;;;;;;;;5017942;28;20553;-73
2021/04/11 03:54:11;;;;;;;32.97;22.33;;;;;;;;;;5020038;28;20459;-73
2021/04/11 03:56:41;;;;;;;35.40;23.10;;;;;;;;;;5027459;28;20852;-73
2021/04/11 03:59:14;;;;;;;38.50;22.80;;;;;;;;;;5019818;28;20463;-74
2021/04/11 04:01:43;;;;;;;33.47;22.37;;;;;;;;;;5019485;28;20852;-73
2021/04/11 04:04:15;;;;;;;35.27;23.33;;;;;;;;;;5019313;28;20565;-73
2021/04/11 04:06:50;;;;;;;36.00;23.27;;;;;;;;;;5019534;28;20836;-73
2021/04/11 04:09:17;;;;;;;35.70;22.10;;;;;;;;;;5019144;28;20568;-72
2021/04/11 04:11:56;;;;;;;39.40;24.03;;;;;;;;;;5019121;28;20459;-73
2021/04/11 04:14:30;;;;;;;36.40;22.73;;;;;;;;;;5019709;28;20550;-72
2021/04/11 04:17:01;;;;;;;35.60;24.10;;;;;;;;;;5034578;28;20486;-72
2021/04/11 04:19:32;;;;;;;38.37;24.50;;;;;;;;;;5038942;28;20925;-72
2021/04/11 04:22:06;;;;;;;39.67;24.20;;;;;;;;;;5039031;28;20538;-72
2021/04/11 04:24:41;;;;;;;30.27;20.70;;;;;;;;;;5037960;28;20449;-72
2021/04/11 04:27:16;;;;;;;41.13;26.30;;;;;;;;;;5022042;28;20565;-72
2021/04/11 04:29:50;;;;;;;42.93;28.00;;;;;;;;;;5018765;28;20463;-72
2021/04/11 04:32:27;;;;;;;38.70;22.43;;;;;;;;;;5018396;28;20488;-72
2021/04/11 04:35:04;;;;;;;43.83;24.20;;;;;;;;;;5018405;28;20455;-73
2021/04/11 04:37:37;;;;;;;44.27;30.30;;;;;;;;;;5021486;28;20720;-72
2021/04/11 04:40:06;;;;;;;38.40;23.87;;;;;;;;;;5018702;28;20456;-72
2021/04/11 04:42:41;;;;;;;37.00;25.03;;;;;;;;;;5047855;28;20443;-72
2021/04/11 04:45:14;;;;;;;39.20;26.27;;;;;;;;;;5056615;28;20531;-72
2021/04/11 04:47:47;;;;;;;39.43;24.50;;;;;;;;;;5039858;28;20537;-72
2021/04/11 04:50:18;;;;;;;41.70;27.33;;;;;;;;;;5038742;28;20481;-72
2021/04/11 04:52:49;;;;;;;40.60;26.73;;;;;;;;;;5039219;28;20491;-73
2021/04/11 04:55:19;;;;;;;47.87;27.77;;;;;;;;;;5038423;28;20450;-73
2021/04/11 04:57:49;;;;;;;42.17;27.20;;;;;;;;;;5039326;28;20447;-74
2021/04/11 05:00:21;;;;;;;40.47;25.90;;;;;;;;;;5057716;28;20461;-73
2021/04/11 05:02:51;;;;;;;46.83;25.77;;;;;;;;;;5057549;28;20469;-73
2021/04/11 05:05:20;;;;;;;40.67;25.33;;;;;;;;;;5037516;28;20485;-73
2021/04/11 05:07:50;;;;;;;36.47;23.10;;;;;;;;;;5031232;28;20691;-74
2021/04/11 05:10:24;;;;;;;43.87;25.30;;;;;;;;;;5039950;28;20465;-73
2021/04/11 05:12:56;;;;;;;38.30;23.97;;;;;;;;;;5041033;28;20490;-73
2021/04/11 05:15:31;;;;;;;37.23;24.93;;;;;;;;;;5033257;28;20486;-73
2021/04/11 05:18:07;;;;;;;37.30;24.80;;;;;;;;;;5039867;28;20458;-73
2021/04/11 05:20:37;;;;;;;36.70;24.80;;;;;;;;;;5037590;28;20850;-73
2021/04/11 05:23:11;;;;;;;37.83;23.33;;;;;;;;;;5020303;28;20722;-74
2021/04/11 05:25:41;;;;;;;35.87;22.87;;;;;;;;;;5037308;28;20466;-73
2021/04/11 05:28:13;;;;;;;32.23;22.10;;;;;;;;;;5028732;28;20467;-73
2021/04/11 05:30:43;;;;;;;41.53;26.57;;;;;;;;;;5033687;28;20557;-73
2021/04/11 05:33:12;;;;;;;35.17;24.67;;;;;;;;;;5037297;28;20490;-73
2021/04/11 05:35:40;;;;;;;36.07;24.37;;;;;;;;;;5037895;28;20470;-73
2021/04/11 05:38:13;;;;;;;42.00;24.17;;;;;;;;;;5028506;28;20462;-73
2021/04/11 05:40:42;;;;;;;38.03;26.17;;;;;;;;;;5018334;28;20860;-73
2021/04/11 05:43:11;;;;;;;40.97;25.30;;;;;;;;;;5017898;28;20860;-73
2021/04/11 05:45:43;;;;;;;36.47;23.47;;;;;;;;;;5018052;28;20459;-72
2021/04/11 05:48:20;;;;;;;38.20;24.87;;;;;;;;;;5045175;28;20489;-73
2021/04/11 05:50:50;;;;;;;41.77;27.87;;;;;;;;;;5017823;28;20467;-72
2021/04/11 05:53:19;;;;;;;43.07;28.17;;;;;;;;;;5030051;28;20487;-73
2021/04/11 05:55:50;;;;;;;38.90;28.70;;;;;;;;;;5037069;28;20462;-73
2021/04/11 05:58:20;;;;;;;42.10;26.40;;;;;;;;;;5028488;28;20465;-73
2021/04/11 06:00:48;;;;;;;43.13;29.87;;;;;;;;;;5025726;28;20455;-72
2021/04/11 06:03:18;;;;;;;45.47;30.63;;;;;;;;;;5017313;28;20703;-72
2021/04/11 06:05:50;;;;;;;42.20;28.30;;;;;;;;;;5016884;28;20494;-73
2021/04/11 06:08:24;;;;;;;46.73;28.90;;;;;;;;;;5022068;28;20451;-73
2021/04/11 06:10:57;;;;;;;41.80;27.17;;;;;;;;;;5035690;28;20451;-73
2021/04/11 06:13:27;;;;;;;47.57;29.30;;;;;;;;;;5034888;28;20486;-72
2021/04/11 06:15:58;;;;;;;46.23;29.90;;;;;;;;;;5038165;28;20464;-73
2021/04/11 06:18:47;;;;;;;44.30;27.70;;;;;;;;;;5056352;28;20454;-71
2021/04/11 06:21:22;;;;;;;44.13;29.60;;;;;;;;;;5038702;28;20734;-72
2021/04/11 06:23:55;;;;;;;52.73;31.70;;;;;;;;;;5036193;28;20454;-72
2021/04/11 06:26:42;;;;;;;47.13;28.90;;;;;;;;;;5036063;28;20492;-73
2021/04/11 06:29:14;;;;;;;45.73;27.67;;;;;;;;;;5036636;28;20806;-72
2021/04/11 06:31:45;;;;;;;45.27;29.17;;;;;;;;;;5037770;28;20447;-72
2021/04/11 06:34:18;;;;;;;48.87;33.97;;;;;;;;;;5055650;28;20825;-72
2021/04/11 06:36:50;;;;;;;51.83;32.80;;;;;;;;;;5056351;28;20450;-71
2021/04/11 06:39:24;;;;;;;49.17;33.40;;;;;;;;;;5056542;28;20781;-72
2021/04/11 06:42:24;;;;;;;49.27;33.60;;;;;;;;;;5056337;28;20458;-72
2021/04/11 06:45:08;;;;;;;51.83;30.87;;;;;;;;;;5056867;28;20862;-72
2021/04/11 06:47:54;;;;;;;47.87;31.60;;;;;;;;;;5056052;28;20534;-71
2021/04/11 06:50:26;;;;;;;57.23;34.07;;;;;;;;;;5056722;28;20534;-72
2021/04/11 06:53:16;;;;;;;47.40;32.40;;;;;;;;;;5045536;28;20503;-71
2021/04/11 06:55:47;;;;;;;52.27;33.57;;;;;;;;;;5037090;28;20462;-71
2021/04/11 06:58:21;;;;;;;49.30;33.80;;;;;;;;;;5036732;28;20545;-71
2021/04/11 07:00:58;;;;;;;53.13;34.67;;;;;;;;;;5036666;28;20580;-72
2021/04/11 07:03:40;;;;;;;50.77;33.90;;;;;;;;;;5036308;28;20458;-72
2021/04/11 07:06:19;;;;;;;54.27;34.33;;;;;;;;;;5035074;28;20903;-72
2021/04/11 07:08:54;;;;;;;57.70;37.30;;;;;;;;;;5032740;28;20442;-73
2021/04/11 07:11:43;;;;;;;50.40;32.27;;;;;;;;;;5036169;28;20878;-72
2021/04/11 07:14:33;;;;;;;57.50;36.40;;;;;;;;;;5016060;28;20451;-72
2021/04/11 07:17:21;;;;;;;58.57;36.30;;;;;;;;;;5016407;28;20725;-72
2021/04/11 07:20:12;;;;;;;57.37;37.03;;;;;;;;;;5015514;28;20551;-72
2021/04/11 07:23:11;;;;;;;54.97;34.93;;;;;;;;;;5016174;28;20451;-73
2021/04/11 07:25:58;;;;;;;60.47;35.60;;;;;;;;;;5044745;28;20474;-71
2021/04/11 07:28:39;;;;;;;58.63;36.83;;;;;;;;;;5042252;28;20525;-72
2021/04/11 07:31:16;;;;;;;61.40;37.77;;;;;;;;;;5039410;28;20458;-71
2021/04/11 07:34:14;;;;;;;60.90;37.87;;;;;;;;;;5039661;28;20581;-72
2021/04/11 07:40:28;;;;;;;54.87;36.47;;;;;;;;;;5031621;28;20427;-72
2021/04/11 07:43:20;;;;;;;52.53;34.67;;;;;;;;;;5040330;28;20467;-71
2021/04/11 07:46:41;;;;;;;;;;;;;;;;;;;;;
2021/04/11 07:49:51;;;;;;;59.83;37.27;;;;;;;;;;4997128;28;20444;-72
2021/04/11 07:52:52;;;;;;;57.37;37.67;;;;;;;;;;4997538;28;20679;-71
2021/04/11 07:55:47;;;;;;;;;;;;;;;;;;;;;
2021/04/11 07:58:29;;;;;;;56.00;36.10;;;;;;;;;;5036184;28;20465;-72
2021/04/11 08:01:07;;;;;;;57.63;37.50;;;;;;;;;;5036736;28;20475;-72
2021/04/11 08:04:05;;;;;;;47.90;34.00;;;;;;;;;;5028959;28;20935;-72
2021/04/11 08:06:48;;;;;;;60.80;37.40;;;;;;;;;;5018672;28;20505;-72
2021/04/11 08:09:28;;;;;;;56.70;35.90;;;;;;;;;;5028830;28;21162;-72
2021/04/11 08:12:17;;;;;;;56.20;36.60;;;;;;;;;;5018917;28;20451;-71
2021/04/11 08:14:54;;;;;;;64.00;36.80;;;;;;;;;;5034910;28;20466;-72
2021/04/11 08:17:38;;;;;;;56.23;35.10;;;;;;;;;;5035036;28;20525;-72
2021/04/11 08:20:26;;;;;;;59.30;36.03;;;;;;;;;;5031214;28;20462;-71
2021/04/11 08:23:11;;;;;;;54.00;36.77;;;;;;;;;;5035443;28;20487;-71
2021/04/11 08:25:45;;;;;;;53.63;34.53;;;;;;;;;;5023567;28;20526;-71
2021/04/11 08:28:35;;;;;;;51.57;33.10;;;;;;;;;;5021744;28;20909;-71
2021/04/11 08:31:18;;;;;;;53.37;36.20;;;;;;;;;;5017511;28;20448;-73
2021/04/11 08:34:05;;;;;;;48.13;33.70;;;;;;;;;;5016708;28;20795;-72
2021/04/11 08:39:52;;;;;;;44.50;32.27;;;;;;;;;;4990428;28;20534;-72
2021/04/11 08:42:27;;;;;;;49.33;31.57;;;;;;;;;;5025940;28;20482;-72
2021/04/11 08:45:14;;;;;;;43.07;27.77;;;;;;;;;;5037268;28;20469;-71
2021/04/11 08:47:52;;;;;;;41.70;31.33;;;;;;;;;;5026913;28;20482;-72
2021/04/11 08:50:23;;;;;;;47.13;33.23;;;;;;;;;;5036819;28;20467;-72
2021/04/11 08:53:01;;;;;;;42.00;29.80;;;;;;;;;;5037466;28;20438;-70
2021/04/11 08:55:35;;;;;;;38.53;26.73;;;;;;;;;;5037642;28;20486;-72
2021/04/11 08:58:18;;;;;;;37.90;26.60;;;;;;;;;;5036420;28;20456;-71
2021/04/11 09:00:48;;;;;;;33.47;25.70;;;;;;;;;;5037499;28;20439;-72
2021/04/11 09:03:33;;;;;;;35.93;24.57;;;;;;;;;;5037331;28;20486;-75
2021/04/11 09:06:11;;;;;;;32.60;23.33;;;;;;;;;;5033162;28;20848;-72
2021/04/11 09:08:44;;;;;;;39.83;25.10;;;;;;;;;;5035395;28;20467;-72
2021/04/11 09:11:20;;;;;;;34.77;23.07;;;;;;;;;;5038009;28;20458;-72
2021/04/11 09:14:08;;;;;;;33.63;22.10;;;;;;;;;;5037891;28;20482;-71
2021/04/11 09:16:44;;;;;;;34.00;20.67;;;;;;;;;;5037027;28;20482;-72
2021/04/11 09:19:16;;;;;;;23.80;17.70;;;;;;;;;;5036462;28;20698;-72
2021/04/11 09:22:15;;;;;;;23.07;17.10;;;;;;;;;;5037477;28;20546;-72
2021/04/11 09:24:47;;;;;;;27.30;19.60;;;;;;;;;;4976284;28;21092;-72
2021/04/11 09:27:21;;;;;;;22.17;15.63;;;;;;;;;;5025951;28;20894;-71
2021/04/11 09:29:53;;;;;;;20.37;15.77;;;;;;;;;;5037348;28;20520;-72
2021/04/11 09:32:38;;;;;;;20.43;15.30;;;;;;;;;;5036654;28;20447;-72
2021/04/11 09:35:15;;;;;;;21.07;15.13;;;;;;;;;;5037262;28;20469;-71
2021/04/11 09:38:04;;;;;;;18.90;13.10;;;;;;;;;;5037534;28;20464;-71
2021/04/11 09:40:38;;;;;;;19.50;12.97;;;;;;;;;;5036614;28;20549;-71
2021/04/11 09:43:20;;;;;;;16.70;12.80;;;;;;;;;;5036241;28;20494;-71
2021/04/11 09:46:00;;;;;;;19.63;13.40;;;;;;;;;;5020132;28;20435;-71
2021/04/11 09:48:56;;;;;;;22.73;14.00;;;;;;;;;;5036913;28;20875;-70
2021/04/11 09:51:47;;;;;;;17.23;12.30;;;;;;;;;;5035561;28;20494;-70
2021/04/11 09:54:30;;;;;;;16.60;12.37;;;;;;;;;;5037100;28;20478;-72
2021/04/11 09:57:07;;;;;;;16.03;11.37;;;;;;;;;;5036959;28;20457;-72
2021/04/11 09:59:51;;;;;;;15.47;12.23;;;;;;;;;;5037063;28;20460;-72
2021/04/11 10:02:37;;;;;;;15.63;12.70;;;;;;;;;;5036912;28;20451;-72
2021/04/11 10:05:17;;;;;;;15.53;10.47;;;;;;;;;;5016377;28;20806;-72
2021/04/11 10:07:54;;;;;;;16.80;11.23;;;;;;;;;;5016550;28;20459;-72
2021/04/11 10:10:30;;;;;;;14.10;9.57;;;;;;;;;;5016708;28;20457;-71
2021/04/11 10:13:08;;;;;;;13.87;9.53;;;;;;;;;;5016963;28;20483;-72
2021/04/11 10:15:44;;;;;;;14.17;10.73;;;;;;;;;;5015645;28;20455;-72
2021/04/11 10:18:29;;;;;;;12.10;8.60;;;;;;;;;;5015743;28;20471;-72
2021/04/11 10:21:05;;;;;;;12.50;9.03;;;;;;;;;;5016070;28;20509;-72
2021/04/11 10:23:45;;;;;;;11.47;9.87;;;;;;;;;;5016639;28;20553;-72
2021/04/11 10:26:18;;;;;;;12.93;8.53;;;;;;;;;;5020458;28;20454;-73
2021/04/11 10:28:48;;;;;;;14.10;8.27;;;;;;;;;;5036539;28;20483;-73
2021/04/11 10:31:24;;;;;;;11.10;7.20;;;;;;;;;;5035853;28;20450;-72
2021/04/11 10:33:58;;;;;;;11.03;8.07;;;;;;;;;;5036923;28;20882;-73
2021/04/11 10:36:36;;;;;;;7.07;5.37;;;;;;;;;;5037448;28;20482;-72
2021/04/11 10:39:10;;;;;;;7.90;6.67;;;;;;;;;;5032608;28;20458;-72
2021/04/11 10:41:47;;;;;;;6.57;5.63;;;;;;;;;;5031242;28;20447;-72
2021/04/11 10:44:35;;;;;;;8.33;5.70;;;;;;;;;;5045472;28;20477;-72
2021/04/11 10:47:15;;;;;;;9.40;4.77;;;;;;;;;;5042273;28;20454;-72
2021/04/11 10:49:47;;;;;;;6.77;5.27;;;;;;;;;;5036089;28;20712;-72
2021/04/11 10:52:34;;;;;;;5.67;4.77;;;;;;;;;;5035702;28;20686;-71
2021/04/11 10:55:20;;;;;;;7.70;4.27;;;;;;;;;;5034987;28;20447;-72
2021/04/11 10:58:17;;;;;;;6.60;4.20;;;;;;;;;;5035697;28;20454;-73
2021/04/11 11:00:49;;;;;;;5.80;4.57;;;;;;;;;;5036753;28;20447;-71
2021/04/11 11:03:33;;;;;;;4.07;3.17;;;;;;;;;;5039668;28;20597;-72
2021/04/11 11:06:16;;;;;;;5.90;3.67;;;;;;;;;;5039028;28;20763;-72
2021/04/11 11:09:02;;;;;;;4.30;3.27;;;;;;;;;;5038757;28;20746;-72
2021/04/11 11:11:54;;;;;;;5.47;3.77;;;;;;;;;;5038225;28;20543;-72
2021/04/11 11:14:32;;;;;;;4.83;3.37;;;;;;;;;;5035680;28;20452;-72
2021/04/11 11:17:07;;;;;;;6.77;3.87;;;;;;;;;;5019255;28;20459;-72
2021/04/11 11:19:53;;;;;;;6.40;4.30;;;;;;;;;;5023492;28;20548;-72
2021/04/11 11:22:26;;;;;;;5.80;4.50;;;;;;;;;;5039138;28;20524;-72
2021/04/11 11:25:15;;;;;;;6.47;4.77;;;;;;;;;;5038089;28;20450;-72
2021/04/11 11:28:00;;;;;;;5.67;4.37;;;;;;;;;;5037856;28;20553;-72
2021/04/11 11:30:34;;;;;;;5.63;3.47;;;;;;;;;;5038318;28;20451;-72
2021/04/11 11:33:21;;;;;;;4.87;3.10;;;;;;;;;;5038696;28;20538;-72
2021/04/11 11:35:57;;;;;;;3.93;3.30;;;;;;;;;;5038245;28;20758;-72
2021/04/11 11:38:31;;;;;;;4.70;3.53;;;;;;;;;;5020998;28;20518;-72
2021/04/11 11:41:07;;;;;;;3.97;3.03;;;;;;;;;;5017239;28;20746;-72
2021/04/11 11:43:37;;;;;;;4.50;3.60;;;;;;;;;;5018398;28;21042;-71
2021/04/11 11:46:13;;;;;;;3.73;3.00;;;;;;;;;;5017978;28;20452;-72
2021/04/11 11:48:46;;;;;;;3.73;3.33;;;;;;;;;;5018515;28;20719;-71
2021/04/11 11:51:17;;;;;;;4.33;3.13;;;;;;;;;;5028761;28;20870;-72
2021/04/11 11:53:49;;;;;;;5.60;3.90;;;;;;;;;;5038752;28;20451;-72
2021/04/11 11:56:24;;;;;;;5.37;4.17;;;;;;;;;;5039087;28;20888;-72
2021/04/11 11:58:56;;;;;;;4.60;3.70;;;;;;;;;;5037458;28;20866;-71
2021/04/11 12:01:33;;;;;;;5.30;3.47;;;;;;;;;;5036827;28;20863;-71
2021/04/11 12:04:15;;;;;;;3.90;2.97;;;;;;;;;;5038119;28;20486;-71
2021/04/11 12:06:47;;;;;;;4.50;3.43;;;;;;;;;;5038442;28;20465;-72
2021/04/11 12:09:18;;;;;;;5.80;4.40;;;;;;;;;;5037322;28;20754;-72
2021/04/11 12:11:48;;;;;;;5.43;3.83;;;;;;;;;;5036021;28;20732;-71
2021/04/11 12:14:20;;;;;;;4.83;3.53;;;;;;;;;;5038053;28;20451;-72
2021/04/11 12:16:53;;;;;;;8.50;5.03;;;;;;;;;;5037987;28;20455;-72
2021/04/11 12:19:32;;;;;;;6.73;5.00;;;;;;;;;;5036633;28;20835;-72
2021/04/11 12:22:02;;;;;;;9.00;6.53;;;;;;;;;;5037174;28;20706;-71
2021/04/11 12:24:31;;;;;;;6.70;4.90;;;;;;;;;;5037476;28;20490;-72
2021/04/11 12:27:00;;;;;;;9.87;7.43;;;;;;;;;;5037808;28;20452;-72
2021/04/11 12:29:32;;;;;;;8.17;6.43;;;;;;;;;;5037006;28;20459;-71
2021/04/11 12:32:10;;;;;;;9.57;6.00;;;;;;;;;;5028921;28;20444;-71
2021/04/11 12:34:48;;;;;;;7.40;5.63;;;;;;;;;;5022397;28;20447;-72
2021/04/11 12:37:23;;;;;;;9.43;5.57;;;;;;;;;;5037647;28;20466;-71
2021/04/11 12:39:59;;;;;;;8.30;5.37;;;;;;;;;;5037211;28;20452;-71
2021/04/11 12:42:32;;;;;;;8.17;5.87;;;;;;;;;;5036822;28;20469;-74
2021/04/11 12:45:04;;;;;;;7.37;5.70;;;;;;;;;;5036722;28;20885;-73
2021/04/11 12:47:44;;;;;;;8.70;5.47;;;;;;;;;;5037679;28;20459;-73
2021/04/11 12:50:19;;;;;;;9.17;6.10;;;;;;;;;;5036359;28;20545;-74
2021/04/11 12:52:55;;;;;;;9.37;7.63;;;;;;;;;;5037348;28;21323;-72
2021/04/11 12:55:25;;;;;;;8.50;5.90;;;;;;;;;;5036709;28;20493;-72
2021/04/11 12:57:57;;;;;;;9.50;6.43;;;;;;;;;;5036268;28;20493;-72
2021/04/11 13:00:29;;;;;;;10.13;5.80;;;;;;;;;;5038028;28;20473;-73
2021/04/11 13:03:00;;;;;;;8.37;6.23;;;;;;;;;;5036979;28;20491;-72
2021/04/11 13:05:33;;;;;;;9.53;5.03;;;;;;;;;;5037569;28;20486;-72
2021/04/11 13:08:12;;;;;;;7.70;5.70;;;;;;;;;;5037089;28;20458;-72
2021/04/11 13:10:46;;;;;;;8.70;3.70;;;;;;;;;;5017212;28;20456;-72
2021/04/11 13:13:20;;;;;;;10.00;6.47;;;;;;;;;;5017391;28;20443;-73
2021/04/11 13:15:52;;;;;;;6.00;4.53;;;;;;;;;;5017331;28;20540;-72
2021/04/11 13:18:26;;;;;;;7.50;4.23;;;;;;;;;;5016691;28;20578;-72
2021/04/11 13:21:03;;;;;;;6.40;3.17;;;;;;;;;;5036479;28;20475;-72
2021/04/11 13:23:35;;;;;;;7.13;4.57;;;;;;;;;;5033523;28;20851;-72
2021/04/11 13:26:06;;;;;;;9.33;4.90;;;;;;;;;;5037022;28;20446;-72
2021/04/11 13:28:37;;;;;;;7.00;4.20;;;;;;;;;;5036972;28;20852;-72
2021/04/11 13:31:10;;;;;;;5.93;3.97;;;;;;;;;;5037230;28;20457;-73
2021/04/11 13:33:48;;;;;;;6.30;4.40;;;;;;;;;;5036578;28;20736;-73
2021/04/11 13:36:27;;;;;;;5.70;4.13;;;;;;;;;;5024059;28;20882;-72
2021/04/11 13:38:59;;;;;;;5.07;3.47;;;;;;;;;;5016560;28;20463;-76
2021/04/11 13:41:31;;;;;;;5.33;3.80;;;;;;;;;;5029072;28;20739;-71
2021/04/11 13:44:03;;;;;;;4.90;3.40;;;;;;;;;;5034281;28;20522;-72
2021/04/11 13:46:45;;;;;;;6.53;4.43;;;;;;;;;;5027158;28;20462;-72
2021/04/11 13:49:27;;;;;;;4.60;2.63;;;;;;;;;;5035408;28;20497;-72
2021/04/11 13:52:01;;;;;;;6.20;3.57;;;;;;;;;;5033365;28;20703;-73
2021/04/11 13:54:40;;;;;;;4.23;3.17;;;;;;;;;;5034820;28;20936;-73
2021/04/11 13:57:19;;;;;;;4.40;2.93;;;;;;;;;;5025420;28;20467;-72
2021/04/11 13:59:52;;;;;;;5.00;4.30;;;;;;;;;;5034828;28;20483;-72
2021/04/11 14:02:30;;;;;;;5.97;4.40;;;;;;;;;;5038034;28;20556;-72
2021/04/11 14:05:07;;;;;;;6.10;4.00;;;;;;;;;;5052715;28;20515;-72
2021/04/11 14:07:38;;;;;;;8.57;6.53;;;;;;;;;;5029941;28;20450;-72
2021/04/11 14:10:16;;;;;;;4.87;3.07;;;;;;;;;;5015629;28;20452;-72
2021/04/11 14:12:54;;;;;;;5.80;4.83;;;;;;;;;;5018774;28;20455;-73
2021/04/11 14:15:26;;;;;;;7.33;5.27;;;;;;;;;;5016378;28;20467;-72
2021/04/11 14:18:00;;;;;;;8.27;6.07;;;;;;;;;;5033077;28;20474;-72
2021/04/11 14:20:36;;;;;;;9.30;5.83;;;;;;;;;;5015718;28;20550;-74
2021/04/11 14:23:06;;;;;;;6.93;5.40;;;;;;;;;;5023991;28;20482;-72
2021/04/11 14:25:37;;;;;;;8.83;5.47;;;;;;;;;;5035672;28;20461;-72
2021/04/11 14:28:14;;;;;;;5.97;4.83;;;;;;;;;;5036350;28;20860;-72
2021/04/11 14:30:46;;;;;;;3.53;2.60;;;;;;;;;;5034707;28;20454;-72
2021/04/11 14:33:35;;;;;;;4.40;3.30;;;;;;;;;;5035282;28;20834;-72
2021/04/11 14:36:10;;;;;;;2.97;2.00;;;;;;;;;;5025168;28;20463;-73
2021/04/11 14:38:46;;;;;;;4.83;2.93;;;;;;;;;;5015716;28;20548;-72
2021/04/11 14:41:23;;;;;;;5.53;2.40;;;;;;;;;;5022227;28;20454;-72
2021/04/11 14:43:52;;;;;;;5.13;2.43;;;;;;;;;;5035461;28;20492;-71
2021/04/11 14:46:22;;;;;;;4.73;1.97;;;;;;;;;;5036623;28;20451;-72
2021/04/11 14:48:50;;;;;;;3.03;1.80;;;;;;;;;;5033647;28;20447;-72
2021/04/11 14:51:25;;;;;;;3.33;1.97;;;;;;;;;;5028582;28;20491;-72
2021/04/11 14:54:01;;;;;;;3.70;2.10;;;;;;;;;;5033978;28;20735;-72
2021/04/11 14:56:33;;;;;;;3.20;1.70;;;;;;;;;;5035307;28;20478;-72
2021/04/11 14:59:09;;;;;;;2.80;1.63;;;;;;;;;;5035781;28;20871;-71
2021/04/11 15:01:40;;;;;;;3.50;1.67;;;;;;;;;;5015111;28;20955;-72
2021/04/11 15:04:16;;;;;;;2.30;1.10;;;;;;;;;;5015372;28;20499;-72
2021/04/11 15:06:47;;;;;;;2.07;1.23;;;;;;;;;;5016267;28;20455;-73
2021/04/11 15:09:35;;;;;;;3.07;1.30;;;;;;;;;;5015818;28;20464;-72
2021/04/11 15:12:11;;;;;;;4.83;1.60;;;;;;;;;;5021353;28;20495;-72
2021/04/11 15:14:51;;;;;;;2.80;1.63;;;;;;;;;;5035894;28;20655;-72
2021/04/11 15:17:21;;;;;;;4.07;1.43;;;;;;;;;;5035084;28;20451;-72
2021/04/11 15:19:55;;;;;;;2.83;1.50;;;;;;;;;;5030980;28;20477;-72
2021/04/11 15:22:34;;;;;;;3.00;1.27;;;;;;;;;;5053204;28;20445;-72